Time;durP1;ratioP1;P1;durP2;ratioP2;P2;SDS_P1;SDS_P2;PMS_P1;PMS_P2;Temp;Humidity;BMP_temperature;BMP_pressure;BME280_temperature;BME280_humidity;BME280_pressure;Samples;Min_cycle;Max_cycle;Signal;HPM_P1;HPM_P2
2022/07/29 00:01:06;;;;;;;0.00;0.00;;;16.00;70.90;;;;;;5050978;28;20048;-74
2022/07/29 00:03:31;;;;;;;0.00;0.00;;;16.00;71.10;;;;;;5032133;28;20099;-74
2022/07/29 00:05:57;;;;;;;0.00;0.00;;;16.00;71.00;;;;;;5050390;28;20041;-74
2022/07/29 00:08:23;;;;;;;0.00;0.00;;;16.00;71.10;;;;;;5050682;28;20041;-74
2022/07/29 00:10:48;;;;;;;0.00;0.00;;;16.00;71.10;;;;;;5050538;28;20785;-74
2022/07/29 00:13:14;;;;;;;0.00;0.00;;;16.00;71.40;;;;;;5050340;28;20648;-75
2022/07/29 00:15:40;;;;;;;0.00;0.00;;;15.90;71.40;;;;;;5015392;28;20044;-74
2022/07/29 00:18:05;;;;;;;0.00;0.00;;;15.90;71.60;;;;;;5050577;28;20048;-74
2022/07/29 00:20:31;;;;;;;0.00;0.00;;;16.00;71.40;;;;;;5049467;28;20045;-74
2022/07/29 00:22:57;;;;;;;0.00;0.00;;;16.00;71.50;;;;;;5016106;28;20124;-74
2022/07/29 00:25:22;;;;;;;0.10;0.10;;;16.00;71.70;;;;;;5049463;28;20052;-74
2022/07/29 00:27:48;;;;;;;0.00;0.00;;;15.90;71.80;;;;;;5050176;28;20048;-74
2022/07/29 00:30:13;;;;;;;0.03;0.03;;;16.00;71.50;;;;;;5049591;28;20391;-74
2022/07/29 00:32:39;;;;;;;0.00;0.00;;;16.00;71.80;;;;;;5050330;28;20051;-74
2022/07/29 00:37:49;;;;;;;1.27;0.85;;;15.90;71.90;;;;;;5046256;28;20076;-74
2022/07/29 00:40:15;;;;;;;0.20;0.20;;;16.00;71.90;;;;;;5049291;28;20146;-74
2022/07/29 00:42:51;;;;;;;0.15;0.15;;;16.00;72.00;;;;;;5032455;28;20055;-74
2022/07/29 00:45:17;;;;;;;0.00;0.00;;;16.00;72.10;;;;;;5049971;28;20762;-74
2022/07/29 00:47:43;;;;;;;0.00;0.00;;;16.00;72.20;;;;;;5048926;28;20052;-74
2022/07/29 00:50:11;;;;;;;0.00;0.00;;;15.90;72.40;;;;;;5049293;28;20048;-74
2022/07/29 00:52:38;;;;;;;0.00;0.00;;;16.00;72.70;;;;;;5049722;28;20445;-74
2022/07/29 00:55:06;;;;;;;0.00;0.00;;;15.90;72.50;;;;;;5049418;28;20116;-74
2022/07/29 00:57:32;;;;;;;0.00;0.00;;;16.00;72.50;;;;;;5048432;28;20440;-74
2022/07/29 00:59:58;;;;;;;0.00;0.00;;;16.00;72.60;;;;;;5049390;28;20037;-74
2022/07/29 01:02:23;;;;;;;0.00;0.00;;;16.00;72.70;;;;;;5014923;28;20071;-75
2022/07/29 01:04:49;;;;;;;0.00;0.00;;;16.00;72.80;;;;;;5049077;28;20047;-74
2022/07/29 01:07:16;;;;;;;0.00;0.00;;;16.00;72.90;;;;;;5049061;28;20076;-75
2022/07/29 01:09:43;;;;;;;0.00;0.00;;;16.00;72.90;;;;;;5030599;28;20120;-74
2022/07/29 01:12:09;;;;;;;0.00;0.00;;;16.00;73.00;;;;;;5049348;28;20460;-74
2022/07/29 01:14:36;;;;;;;0.00;0.00;;;16.00;73.10;;;;;;5049313;28;20064;-74
2022/07/29 01:17:23;;;;;;;0.00;0.00;;;16.00;73.10;;;;;;5047259;28;20040;-74
2022/07/29 01:20:03;;;;;;;0.00;0.00;;;16.00;73.20;;;;;;5048024;28;20052;-74
2022/07/29 01:22:35;;;;;;;0.00;0.00;;;16.00;73.10;;;;;;5049939;28;20071;-75
2022/07/29 01:25:31;;;;;;;0.00;0.00;;;16.00;73.20;;;;;;5048975;28;20123;-74
2022/07/29 01:28:04;;;;;;;0.08;0.08;;;16.00;73.40;;;;;;5047716;28;20135;-74
2022/07/29 01:30:34;;;;;;;0.00;0.00;;;16.00;73.20;;;;;;5038154;28;20468;-75
2022/07/29 01:33:05;;;;;;;0.00;0.00;;;16.00;73.20;;;;;;5049044;28;20045;-74
2022/07/29 01:35:38;;;;;;;0.00;0.00;;;16.00;73.40;;;;;;5048726;28;20048;-74
2022/07/29 01:38:15;;;;;;;0.00;0.00;;;16.00;73.40;;;;;;5048863;28;20513;-74
2022/07/29 01:40:44;;;;;;;0.00;0.00;;;16.00;73.30;;;;;;5023041;28;20056;-74
2022/07/29 01:43:17;;;;;;;0.00;0.00;;;16.00;73.30;;;;;;5031336;28;20045;-75
2022/07/29 01:45:50;;;;;;;0.00;0.00;;;16.00;73.40;;;;;;5048535;28;20044;-74
2022/07/29 01:48:30;;;;;;;0.00;0.00;;;16.00;73.50;;;;;;5049087;28;20052;-74
2022/07/29 01:51:04;;;;;;;0.00;0.00;;;16.00;73.60;;;;;;5047845;28;20127;-74
2022/07/29 01:53:50;;;;;;;0.00;0.00;;;16.00;73.50;;;;;;5048749;28;20124;-75
2022/07/29 01:56:18;;;;;;;0.00;0.00;;;16.00;73.60;;;;;;5013970;28;20056;-75
2022/07/29 01:58:45;;;;;;;0.00;0.00;;;16.00;73.90;;;;;;5048495;28;20037;-74
2022/07/29 02:01:13;;;;;;;0.00;0.00;;;16.00;73.80;;;;;;5046695;28;20063;-75
2022/07/29 02:03:42;;;;;;;2.28;1.85;;;16.00;73.70;;;;;;5018505;28;20053;-74
2022/07/29 02:06:10;;;;;;;0.00;0.00;;;16.00;73.90;;;;;;5034920;28;20100;-74
2022/07/29 02:08:38;;;;;;;0.00;0.00;;;16.00;74.10;;;;;;5052832;28;20524;-74
2022/07/29 02:11:06;;;;;;;0.00;0.00;;;16.00;74.00;;;;;;5051663;28;20041;-74
2022/07/29 02:13:34;;;;;;;0.00;0.00;;;16.00;74.20;;;;;;5052080;28;20114;-75
2022/07/29 02:16:02;;;;;;;0.00;0.00;;;16.00;74.20;;;;;;5052137;28;20036;-75
2022/07/29 02:18:30;;;;;;;0.00;0.00;;;16.00;74.30;;;;;;5052510;28;20108;-74
2022/07/29 02:20:58;;;;;;;1.65;1.45;;;16.00;74.30;;;;;;5052350;28;20047;-74
2022/07/29 02:23:25;;;;;;;0.00;0.00;;;16.00;74.40;;;;;;5051813;28;20051;-74
2022/07/29 02:25:56;;;;;;;0.00;0.00;;;16.00;74.50;;;;;;5052191;28;20563;-74
2022/07/29 02:28:28;;;;;;;0.00;0.00;;;16.00;74.50;;;;;;5051823;28;20416;-74
2022/07/29 02:30:58;;;;;;;0.00;0.00;;;16.00;74.50;;;;;;5052211;28;20072;-75
2022/07/29 02:33:25;;;;;;;0.00;0.00;;;16.00;74.40;;;;;;5052416;28;20413;-75
2022/07/29 02:35:51;;;;;;;0.00;0.00;;;16.00;74.70;;;;;;5051390;28;20040;-74
2022/07/29 02:41:07;;;;;;;0.00;0.00;;;16.00;74.50;;;;;;5051136;28;20072;-75
2022/07/29 02:43:35;;;;;;;0.00;0.00;;;16.00;74.60;;;;;;5052379;28;20052;-74
2022/07/29 02:46:04;;;;;;;0.00;0.00;;;16.00;74.60;;;;;;5051617;28;20906;-74
2022/07/29 02:48:38;;;;;;;0.00;0.00;;;16.00;74.60;;;;;;5051014;28;20045;-74
2022/07/29 02:51:16;;;;;;;0.00;0.00;;;16.00;74.60;;;;;;5051901;28;20045;-74
2022/07/29 02:53:48;;;;;;;0.00;0.00;;;16.00;74.60;;;;;;5052193;28;20948;-75
2022/07/29 02:56:18;;;;;;;0.00;0.00;;;16.00;74.70;;;;;;5051111;28;20053;-74
2022/07/29 02:58:56;;;;;;;0.00;0.00;;;15.90;74.60;;;;;;5051300;28;20060;-75
2022/07/29 03:01:28;;;;;;;0.00;0.00;;;16.00;74.70;;;;;;5042202;28;20897;-74
2022/07/29 03:03:55;;;;;;;0.10;0.10;;;15.90;74.70;;;;;;5051812;28;20078;-74
2022/07/29 03:06:22;;;;;;;0.10;0.10;;;15.90;74.70;;;;;;5051061;28;21042;-75
2022/07/29 03:08:49;;;;;;;0.00;0.00;;;16.00;74.50;;;;;;5051731;28;20045;-74
2022/07/29 03:11:16;;;;;;;0.00;0.00;;;15.90;74.60;;;;;;5051237;28;20033;-75
2022/07/29 03:13:42;;;;;;;0.03;0.03;;;16.00;74.50;;;;;;5051520;28;20048;-74
2022/07/29 03:16:09;;;;;;;0.00;0.00;;;16.00;74.40;;;;;;5051288;28;20033;-74
2022/07/29 03:18:36;;;;;;;0.00;0.00;;;15.90;74.40;;;;;;5050472;28;20041;-75
2022/07/29 03:21:02;;;;;;;0.10;0.10;;;16.00;74.40;;;;;;5033605;28;20037;-74
2022/07/29 03:23:28;;;;;;;0.00;0.00;;;15.90;74.40;;;;;;5017097;28;20128;-74
2022/07/29 03:25:54;;;;;;;0.00;0.00;;;16.00;74.30;;;;;;5051018;28;20124;-74
2022/07/29 03:28:21;;;;;;;0.00;0.00;;;16.00;74.40;;;;;;5050639;28;20437;-74
2022/07/29 03:30:47;;;;;;;0.00;0.00;;;15.90;74.30;;;;;;5051375;28;20045;-74
2022/07/29 03:33:12;;;;;;;0.10;0.10;;;15.90;74.30;;;;;;5050650;28;20452;-74
2022/07/29 03:35:38;;;;;;;0.00;0.00;;;15.90;74.30;;;;;;5050948;28;20045;-74
2022/07/29 03:38:03;;;;;;;0.17;0.17;;;16.00;74.30;;;;;;5050432;28;20413;-74
2022/07/29 03:40:55;;;;;;;0.00;0.00;;;15.90;74.30;;;;;;5050351;28;20061;-74
2022/07/29 03:43:22;;;;;;;0.10;0.10;;;15.90;74.20;;;;;;5050775;28;20045;-74
2022/07/29 03:45:51;;;;;;;0.00;0.00;;;15.90;74.20;;;;;;5031928;28;20052;-74
2022/07/29 03:48:20;;;;;;;0.00;0.00;;;15.90;74.20;;;;;;5050366;28;20056;-74
2022/07/29 03:50:46;;;;;;;0.00;0.00;;;15.90;74.20;;;;;;5051125;28;20102;-74
2022/07/29 03:53:12;;;;;;;0.00;0.00;;;15.90;74.20;;;;;;5033225;28;20044;-74
2022/07/29 03:55:50;;;;;;;0.03;0.03;;;15.90;74.30;;;;;;5050788;28;20064;-74
2022/07/29 03:58:18;;;;;;;0.00;0.00;;;15.90;74.40;;;;;;5049305;28;20068;-75
2022/07/29 04:00:44;;;;;;;0.00;0.00;;;15.90;74.40;;;;;;5046830;28;20809;-70
2022/07/29 04:03:10;;;;;;;0.00;0.00;;;15.90;74.30;;;;;;5031099;28;20052;-75
2022/07/29 04:05:35;;;;;;;0.00;0.00;;;15.90;74.40;;;;;;5047259;28;20497;-75
2022/07/29 04:08:01;;;;;;;0.10;0.10;;;15.80;74.30;;;;;;5046831;28;20083;-75
2022/07/29 04:10:27;;;;;;;0.00;0.00;;;15.90;74.40;;;;;;5043007;28;20048;-75
2022/07/29 04:12:52;;;;;;;0.00;0.00;;;15.90;74.40;;;;;;5049920;28;20085;-75
2022/07/29 04:15:18;;;;;;;0.00;0.00;;;15.90;74.40;;;;;;5049197;28;20049;-74
2022/07/29 04:17:44;;;;;;;0.03;0.03;;;15.90;74.40;;;;;;5015154;28;20517;-74
2022/07/29 04:20:12;;;;;;;0.00;0.00;;;15.90;74.40;;;;;;5046820;28;20071;-74
2022/07/29 04:22:41;;;;;;;0.52;0.52;;;15.90;74.50;;;;;;5031101;28;20418;-74
2022/07/29 04:25:07;;;;;;;0.00;0.00;;;15.90;74.50;;;;;;5048219;28;20410;-74
2022/07/29 04:27:33;;;;;;;0.00;0.00;;;15.90;74.60;;;;;;5049540;28;20049;-74
2022/07/29 04:29:58;;;;;;;0.03;0.03;;;15.90;74.50;;;;;;5031724;28;20044;-74
2022/07/29 04:32:25;;;;;;;0.00;0.00;;;15.90;74.50;;;;;;5048371;28;20398;-75
2022/07/29 04:34:54;;;;;;;0.00;0.00;;;15.90;74.50;;;;;;5031712;28;20528;-75
2022/07/29 04:37:20;;;;;;;1.38;1.02;;;15.90;74.50;;;;;;5048905;28;20049;-76
2022/07/29 04:39:45;;;;;;;0.00;0.00;;;15.90;74.50;;;;;;5048533;28;20128;-73
2022/07/29 04:42:11;;;;;;;0.00;0.00;;;15.90;74.50;;;;;;5047858;28;20052;-74
2022/07/29 04:44:36;;;;;;;0.40;0.40;;;15.90;74.50;;;;;;5048988;28;20049;-73
2022/07/29 04:47:02;;;;;;;0.00;0.00;;;15.90;74.40;;;;;;5031339;28;20095;-73
2022/07/29 04:49:27;;;;;;;0.00;0.00;;;15.90;74.40;;;;;;5049116;28;20516;-73
2022/07/29 04:51:53;;;;;;;0.00;0.00;;;15.90;74.40;;;;;;5049381;28;20057;-73
2022/07/29 04:54:19;;;;;;;0.00;0.00;;;15.90;74.50;;;;;;5048867;28;20047;-74
2022/07/29 04:56:46;;;;;;;0.00;0.00;;;15.90;74.60;;;;;;5049357;28;20106;-73
2022/07/29 04:59:11;;;;;;;0.00;0.00;;;15.90;74.60;;;;;;5048207;28;20056;-73
2022/07/29 05:01:37;;;;;;;0.03;0.03;;;15.90;74.50;;;;;;5048145;28;20052;-73
2022/07/29 05:04:02;;;;;;;0.00;0.00;;;15.90;74.50;;;;;;5048686;28;20491;-74
2022/07/29 05:06:28;;;;;;;0.00;0.00;;;15.90;74.60;;;;;;5048209;28;20084;-74
2022/07/29 05:08:54;;;;;;;0.00;0.00;;;15.90;74.40;;;;;;5048075;28;20133;-75
2022/07/29 05:11:19;;;;;;;0.00;0.00;;;15.90;74.40;;;;;;5028521;28;20091;-74
2022/07/29 05:13:45;;;;;;;0.00;0.00;;;16.00;74.40;;;;;;5048805;28;20457;-73
2022/07/29 05:16:10;;;;;;;0.17;0.17;;;16.00;74.40;;;;;;5030782;28;20060;-74
2022/07/29 05:18:36;;;;;;;1.05;1.02;;;16.00;74.30;;;;;;5030487;28;20102;-74
2022/07/29 05:21:02;;;;;;;0.03;0.03;;;16.00;74.20;;;;;;5048322;28;20131;-74
2022/07/29 05:23:28;;;;;;;0.00;0.00;;;16.00;74.20;;;;;;5030895;28;20044;-74
2022/07/29 05:25:53;;;;;;;0.00;0.00;;;16.00;74.10;;;;;;5048120;28;20443;-74
2022/07/29 05:28:19;;;;;;;0.00;0.00;;;16.00;74.20;;;;;;5048933;28;20144;-74
2022/07/29 05:30:44;;;;;;;0.00;0.00;;;16.00;74.40;;;;;;5048060;28;20044;-74
2022/07/29 05:33:10;;;;;;;0.00;0.00;;;16.00;74.30;;;;;;5031323;28;20528;-74
2022/07/29 05:35:37;;;;;;;0.00;0.00;;;16.00;74.30;;;;;;5048484;28;20132;-74
2022/07/29 05:38:02;;;;;;;0.10;0.10;;;16.00;74.20;;;;;;5048461;28;20414;-74
2022/07/29 05:40:28;;;;;;;0.00;0.00;;;16.00;74.20;;;;;;5047237;28;20053;-74
2022/07/29 05:42:54;;;;;;;0.00;0.00;;;16.00;74.20;;;;;;5048090;28;20073;-74
2022/07/29 05:45:20;;;;;;;0.00;0.00;;;16.00;74.20;;;;;;5048413;28;20045;-74
2022/07/29 05:47:45;;;;;;;0.00;0.00;;;16.00;74.30;;;;;;5030766;28;20577;-74
2022/07/29 05:50:11;;;;;;;0.00;0.00;;;16.10;74.20;;;;;;5014488;28;20094;-74
2022/07/29 05:52:37;;;;;;;0.10;0.10;;;16.10;74.20;;;;;;5048675;28;20143;-74
2022/07/29 05:55:05;;;;;;;0.00;0.00;;;16.10;74.10;;;;;;5014841;28;20469;-73
2022/07/29 05:57:31;;;;;;;0.00;0.00;;;16.20;74.10;;;;;;5041325;28;20057;-73
2022/07/29 05:59:56;;;;;;;0.00;0.00;;;16.20;74.00;;;;;;5034473;28;20056;-73
2022/07/29 06:02:22;;;;;;;0.00;0.00;;;16.30;73.90;;;;;;5044473;28;20060;-73
2022/07/29 06:04:49;;;;;;;0.38;0.38;;;16.40;73.70;;;;;;5049581;28;20087;-73
2022/07/29 06:07:14;;;;;;;0.00;0.00;;;16.50;73.60;;;;;;5048854;28;20085;-73
2022/07/29 06:09:41;;;;;;;0.00;0.00;;;16.50;73.40;;;;;;5030936;28;20072;-74
2022/07/29 06:12:07;;;;;;;0.08;0.08;;;16.50;73.20;;;;;;5048852;28;20502;-73
2022/07/29 06:14:33;;;;;;;0.00;0.00;;;16.50;73.00;;;;;;5049074;28;20040;-74
2022/07/29 06:16:58;;;;;;;0.00;0.00;;;16.60;73.20;;;;;;5031641;28;20132;-74
2022/07/29 06:19:24;;;;;;;0.00;0.00;;;16.60;73.30;;;;;;5048402;28;20560;-73
2022/07/29 06:21:49;;;;;;;0.00;0.00;;;16.70;72.70;;;;;;4994199;28;20524;-74
2022/07/29 06:24:16;;;;;;;0.75;0.75;;;16.80;72.50;;;;;;5010469;28;20042;-73
2022/07/29 06:26:42;;;;;;;0.00;0.00;;;16.80;72.40;;;;;;5046782;28;20057;-74
2022/07/29 06:29:08;;;;;;;0.00;0.00;;;16.80;72.40;;;;;;5048181;28;20049;-71
2022/07/29 06:31:34;;;;;;;0.10;0.10;;;16.90;72.20;;;;;;5046980;28;20057;-72
2022/07/29 06:34:00;;;;;;;0.03;0.03;;;16.90;72.10;;;;;;5040792;28;20072;-71
2022/07/29 06:36:25;;;;;;;0.00;0.00;;;17.00;72.20;;;;;;5046915;28;20485;-71
2022/07/29 06:38:51;;;;;;;0.00;0.00;;;17.10;72.00;;;;;;5048166;28;20049;-67
2022/07/29 06:41:17;;;;;;;0.00;0.00;;;17.10;71.80;;;;;;5044907;28;20060;-69
2022/07/29 06:43:44;;;;;;;0.00;0.00;;;17.20;71.80;;;;;;5047874;28;20466;-69
2022/07/29 06:46:18;;;;;;;0.00;0.00;;;17.30;71.80;;;;;;5048208;28;20131;-69
2022/07/29 06:48:44;;;;;;;0.00;0.00;;;17.30;71.60;;;;;;5051350;28;20041;-69
2022/07/29 06:51:11;;;;;;;0.08;0.08;;;17.40;71.10;;;;;;5051648;28;20403;-69
2022/07/29 06:53:37;;;;;;;0.00;0.00;;;17.40;70.80;;;;;;5052034;28;20056;-69
2022/07/29 06:56:05;;;;;;;0.00;0.00;;;17.40;70.50;;;;;;5051959;28;20094;-69
2022/07/29 06:58:31;;;;;;;0.00;0.00;;;17.40;70.60;;;;;;5052121;28;20041;-69
2022/07/29 07:00:58;;;;;;;0.00;0.00;;;17.40;70.70;;;;;;5052109;28;20099;-69
2022/07/29 07:03:24;;;;;;;0.45;0.45;;;17.40;70.90;;;;;;5051762;28;20041;-69
2022/07/29 07:05:52;;;;;;;0.00;0.00;;;17.50;70.90;;;;;;5052068;28;20051;-68
2022/07/29 07:08:19;;;;;;;0.00;0.00;;;17.60;70.70;;;;;;5052137;28;20055;-69
2022/07/29 07:10:45;;;;;;;0.00;0.00;;;17.60;70.40;;;;;;5052055;28;20405;-69
2022/07/29 07:13:11;;;;;;;0.00;0.00;;;17.60;70.60;;;;;;5050947;28;20048;-68
2022/07/29 07:15:37;;;;;;;0.00;0.00;;;17.70;70.70;;;;;;5048349;28;20047;-69
2022/07/29 07:18:04;;;;;;;0.00;0.00;;;17.70;70.40;;;;;;5030042;28;20045;-69
2022/07/29 07:20:31;;;;;;;0.05;0.05;;;17.80;70.20;;;;;;5038457;28;20881;-69
2022/07/29 07:22:57;;;;;;;0.00;0.00;;;17.80;70.30;;;;;;5028940;28;20081;-69
2022/07/29 07:25:22;;;;;;;0.00;0.00;;;17.90;70.10;;;;;;5050888;28;20375;-69
2022/07/29 07:27:48;;;;;;;0.00;0.00;;;17.90;70.30;;;;;;5049308;28;20475;-69
2022/07/29 07:30:14;;;;;;;0.00;0.00;;;18.00;69.80;;;;;;5030918;28;20050;-69
2022/07/29 07:32:40;;;;;;;0.00;0.00;;;17.90;69.70;;;;;;5045502;28;20135;-70
2022/07/29 07:35:07;;;;;;;0.00;0.00;;;17.90;69.80;;;;;;5044097;28;20141;-69
2022/07/29 07:37:33;;;;;;;0.10;0.10;;;17.90;69.60;;;;;;5030690;28;20633;-69
2022/07/29 07:39:59;;;;;;;0.88;0.25;;;17.90;69.40;;;;;;5039836;28;20469;-69
2022/07/29 07:42:25;;;;;;;0.00;0.00;;;18.00;69.50;;;;;;5050620;28;20041;-69
2022/07/29 07:44:50;;;;;;;0.00;0.00;;;18.00;69.30;;;;;;5050853;28;20057;-69
2022/07/29 07:47:19;;;;;;;0.00;0.00;;;18.00;69.10;;;;;;5049942;28;20060;-69
2022/07/29 07:49:49;;;;;;;0.00;0.00;;;18.10;69.30;;;;;;5042755;28;20053;-69
2022/07/29 07:52:16;;;;;;;0.00;0.00;;;18.10;69.30;;;;;;5030663;28;20059;-69
2022/07/29 07:54:43;;;;;;;0.00;0.00;;;18.20;68.90;;;;;;4997862;28;20057;-69
2022/07/29 07:57:09;;;;;;;0.00;0.00;;;18.30;69.10;;;;;;5050354;28;20639;-69
2022/07/29 07:59:35;;;;;;;0.00;0.00;;;18.40;69.20;;;;;;5049158;28;20092;-69
2022/07/29 08:02:01;;;;;;;0.00;0.00;;;18.50;68.40;;;;;;5050571;28;20068;-68
2022/07/29 08:04:27;;;;;;;0.00;0.00;;;18.50;68.80;;;;;;5044578;28;20426;-68
2022/07/29 08:06:54;;;;;;;0.00;0.00;;;18.60;69.00;;;;;;5030195;28;20115;-69
2022/07/29 08:09:21;;;;;;;0.10;0.10;;;18.70;68.70;;;;;;5030860;28;20057;-69
2022/07/29 08:11:46;;;;;;;0.00;0.00;;;18.70;68.60;;;;;;5047029;28;20111;-68
2022/07/29 08:14:13;;;;;;;0.00;0.00;;;18.80;68.40;;;;;;5033770;28;20089;-68
2022/07/29 08:16:40;;;;;;;0.08;0.08;;;18.70;67.70;;;;;;5003867;28;20507;-68
2022/07/29 08:19:05;;;;;;;0.00;0.00;;;18.70;67.70;;;;;;5049883;28;20409;-68
2022/07/29 08:21:32;;;;;;;0.00;0.00;;;18.70;68.00;;;;;;5049498;28;20071;-68
2022/07/29 08:26:43;;;;;;;0.10;0.10;;;18.80;68.20;;;;;;5041480;28;20092;-68
2022/07/29 08:29:09;;;;;;;0.00;0.00;;;18.80;68.00;;;;;;5049781;28;20061;-68
2022/07/29 08:31:39;;;;;;;0.00;0.00;;;18.80;68.10;;;;;;5031232;28;20041;-68
2022/07/29 08:34:04;;;;;;;0.00;0.00;;;18.80;67.90;;;;;;5045905;28;20065;-68
2022/07/29 08:36:30;;;;;;;0.00;0.00;;;18.90;68.00;;;;;;5033628;28;20040;-69
2022/07/29 08:38:57;;;;;;;0.22;0.22;;;18.80;68.00;;;;;;5048559;28;20418;-69
2022/07/29 08:41:23;;;;;;;0.08;0.08;;;18.90;67.90;;;;;;5048002;28;20090;-68
2022/07/29 08:43:50;;;;;;;0.00;0.00;;;18.80;67.70;;;;;;5044325;28;20498;-68
2022/07/29 08:46:16;;;;;;;0.00;0.00;;;18.80;67.60;;;;;;5030586;28;20041;-68
2022/07/29 08:48:42;;;;;;;0.00;0.00;;;18.70;67.90;;;;;;5032785;28;20114;-68
2022/07/29 08:51:12;;;;;;;0.00;0.00;;;18.80;67.90;;;;;;5049450;28;20125;-69
2022/07/29 08:53:41;;;;;;;0.00;0.00;;;18.70;67.90;;;;;;5031071;28;20592;-69
2022/07/29 08:56:10;;;;;;;0.00;0.00;;;18.70;68.10;;;;;;5047073;28;20053;-69
2022/07/29 08:58:36;;;;;;;0.00;0.00;;;18.70;68.20;;;;;;5048007;28;20053;-69
2022/07/29 09:01:03;;;;;;;0.00;0.00;;;18.70;68.00;;;;;;5038733;28;20052;-69
2022/07/29 09:03:34;;;;;;;0.00;0.00;;;18.60;67.90;;;;;;5048487;28;20056;-69
2022/07/29 09:06:01;;;;;;;0.00;0.00;;;18.60;67.70;;;;;;5048907;28;20057;-70
2022/07/29 09:08:27;;;;;;;0.00;0.00;;;18.60;67.80;;;;;;5040872;28;20132;-70
2022/07/29 09:10:55;;;;;;;0.05;0.05;;;18.60;68.00;;;;;;5028811;28;20046;-70
2022/07/29 09:13:22;;;;;;;0.00;0.00;;;18.60;67.90;;;;;;5030437;28;20077;-70
2022/07/29 09:15:47;;;;;;;0.00;0.00;;;18.60;67.60;;;;;;5047956;28;20112;-69
2022/07/29 09:18:32;;;;;;;0.00;0.00;;;18.60;67.30;;;;;;5034436;28;20498;-70
2022/07/29 09:23:59;;;;;;;0.00;0.00;;;18.60;67.30;;;;;;5041472;28;20045;-70
2022/07/29 09:26:29;;;;;;;0.00;0.00;;;18.60;67.30;;;;;;5041202;28;20041;-71
2022/07/29 09:28:55;;;;;;;0.00;0.00;;;18.60;67.10;;;;;;5028351;28;20158;-71
2022/07/29 09:31:37;;;;;;;0.00;0.00;;;18.60;67.10;;;;;;5047218;28;20056;-71
2022/07/29 09:34:03;;;;;;;0.00;0.00;;;18.60;67.40;;;;;;5044468;28;20036;-68
2022/07/29 09:36:29;;;;;;;0.05;0.05;;;18.60;67.40;;;;;;5047527;28;20052;-68
2022/07/29 09:38:59;;;;;;;0.00;0.00;;;18.60;67.60;;;;;;5046878;28;20044;-67
2022/07/29 09:41:26;;;;;;;0.00;0.00;;;18.50;68.00;;;;;;5042739;28;20056;-68
2022/07/29 09:43:57;;;;;;;0.00;0.00;;;18.60;68.30;;;;;;5027241;28;20084;-68
2022/07/29 09:46:23;;;;;;;0.00;0.00;;;18.60;68.70;;;;;;5027221;28;20053;-69
2022/07/29 09:49:12;;;;;;;0.00;0.00;;;18.50;68.70;;;;;;5047626;28;20037;-69
2022/07/29 09:51:38;;;;;;;0.00;0.00;;;18.50;68.90;;;;;;5047453;28;20041;-69
2022/07/29 09:54:24;;;;;;;0.00;0.00;;;18.50;68.90;;;;;;5047594;28;20061;-69
2022/07/29 09:56:50;;;;;;;0.00;0.00;;;18.50;69.30;;;;;;5043882;28;20409;-70
2022/07/29 09:59:16;;;;;;;2.75;0.75;;;18.50;69.20;;;;;;5046512;28;20037;-69
2022/07/29 10:01:42;;;;;;;0.00;0.00;;;18.60;69.20;;;;;;5027197;28;20063;-69
2022/07/29 10:04:07;;;;;;;0.00;0.00;;;18.60;70.00;;;;;;5048494;28;20097;-69
2022/07/29 10:06:33;;;;;;;0.00;0.00;;;18.60;69.30;;;;;;5043666;28;20041;-69
2022/07/29 10:09:11;;;;;;;0.00;0.00;;;18.70;69.70;;;;;;5042993;28;20045;-70
2022/07/29 10:11:37;;;;;;;0.00;0.00;;;18.80;69.80;;;;;;5043353;28;20048;-69
2022/07/29 10:14:04;;;;;;;0.00;0.00;;;18.90;69.30;;;;;;5052794;28;20090;-69
2022/07/29 10:16:33;;;;;;;0.03;0.03;;;19.00;69.20;;;;;;5045344;28;20044;-69
2022/07/29 10:19:00;;;;;;;0.03;0.03;;;19.00;69.30;;;;;;5042555;28;20044;-69
2022/07/29 10:21:27;;;;;;;0.00;0.00;;;19.00;68.80;;;;;;5045230;28;20076;-69
2022/07/29 10:23:56;;;;;;;0.00;0.00;;;19.10;68.70;;;;;;5051618;28;20052;-69
2022/07/29 10:26:23;;;;;;;0.52;0.40;;;19.10;68.90;;;;;;5050319;28;20114;-69
2022/07/29 10:28:48;;;;;;;0.15;0.15;;;19.20;69.00;;;;;;5050859;28;20033;-69
2022/07/29 10:31:38;;;;;;;0.00;0.00;;;19.20;68.60;;;;;;5017440;28;20047;-69
2022/07/29 10:34:34;;;;;;;0.00;0.00;;;19.20;68.20;;;;;;5050077;28;20379;-69
2022/07/29 10:37:12;;;;;;;0.00;0.00;;;19.20;68.40;;;;;;5051601;28;20528;-68
2022/07/29 10:43:17;;;;;;;0.00;0.00;;;19.30;68.60;;;;;;4969924;28;20043;-68
2022/07/29 10:45:46;;;;;;;0.00;0.00;;;19.40;68.40;;;;;;5050675;28;20087;-67
2022/07/29 10:48:12;;;;;;;0.00;0.00;;;19.50;68.50;;;;;;5051252;28;20079;-68
2022/07/29 10:51:02;;;;;;;0.00;0.00;;;19.50;68.30;;;;;;5051526;28;20440;-69
2022/07/29 10:53:48;;;;;;;0.00;0.00;;;19.50;68.40;;;;;;5050604;28;20064;-68
2022/07/29 10:56:28;;;;;;;0.00;0.00;;;19.60;67.70;;;;;;5049292;28;20071;-68
2022/07/29 10:59:22;;;;;;;0.00;0.00;;;19.50;67.70;;;;;;5049173;28;20754;-68
2022/07/29 11:01:49;;;;;;;0.00;0.00;;;19.60;67.30;;;;;;5032512;28;20079;-68
2022/07/29 11:04:15;;;;;;;0.00;0.00;;;19.50;67.00;;;;;;5050868;28;20493;-68
2022/07/29 11:07:00;;;;;;;0.00;0.00;;;19.50;67.10;;;;;;5040963;28;20054;-68
2022/07/29 11:09:25;;;;;;;0.00;0.00;;;19.40;67.60;;;;;;5050514;28;20044;-68
2022/07/29 11:11:52;;;;;;;0.00;0.00;;;19.50;67.60;;;;;;5032691;28;20049;-68
2022/07/29 11:14:38;;;;;;;0.10;0.10;;;19.50;67.80;;;;;;5033402;28;20041;-68
2022/07/29 11:17:05;;;;;;;0.00;0.00;;;19.50;67.80;;;;;;5042542;28;20494;-68
2022/07/29 11:19:30;;;;;;;0.00;0.00;;;19.50;67.40;;;;;;5049656;28;20099;-67
2022/07/29 11:21:57;;;;;;;0.00;0.00;;;19.50;67.40;;;;;;5050320;28;20449;-67
2022/07/29 11:24:30;;;;;;;0.00;0.00;;;19.60;67.40;;;;;;5046808;28;20077;-67
2022/07/29 11:27:16;;;;;;;0.00;0.00;;;19.60;67.50;;;;;;5041441;28;20106;-68
2022/07/29 11:29:51;;;;;;;0.00;0.00;;;19.60;67.70;;;;;;5042649;28;20072;-67
2022/07/29 11:32:19;;;;;;;0.00;0.00;;;19.70;67.50;;;;;;5042270;28;20079;-67
2022/07/29 11:34:47;;;;;;;0.00;0.00;;;19.80;67.70;;;;;;5041972;28;20079;-68
2022/07/29 11:37:12;;;;;;;0.00;0.00;;;19.80;68.00;;;;;;5042563;28;20051;-68
2022/07/29 11:39:46;;;;;;;0.00;0.00;;;19.90;68.00;;;;;;5043343;28;20037;-68
2022/07/29 11:42:23;;;;;;;0.00;0.00;;;20.00;68.00;;;;;;5042160;28;20615;-67
2022/07/29 11:45:08;;;;;;;0.00;0.00;;;20.00;67.70;;;;;;5044691;28;20048;-67
2022/07/29 11:47:36;;;;;;;0.00;0.00;;;20.10;67.70;;;;;;5027337;28;20164;-73
2022/07/29 11:50:05;;;;;;;0.00;0.00;;;20.20;67.10;;;;;;5042439;28;20057;-68
2022/07/29 11:52:50;;;;;;;0.00;0.00;;;20.20;66.70;;;;;;5041818;28;20045;-68
2022/07/29 11:55:18;;;;;;;0.00;0.00;;;20.30;66.30;;;;;;5040583;28;20056;-69
2022/07/29 11:57:49;;;;;;;0.00;0.00;;;20.30;66.00;;;;;;5030939;28;20049;-69
2022/07/29 12:00:26;;;;;;;0.00;0.00;;;20.30;66.30;;;;;;5047746;28;20472;-69
2022/07/29 12:02:52;;;;;;;0.00;0.00;;;20.40;66.40;;;;;;5012072;28;20072;-69
2022/07/29 12:05:18;;;;;;;0.00;0.00;;;20.50;66.40;;;;;;5045567;28;20084;-69
2022/07/29 12:07:44;;;;;;;0.00;0.00;;;20.50;65.80;;;;;;5043841;28;20037;-69
2022/07/29 12:10:10;;;;;;;0.00;0.00;;;20.60;66.00;;;;;;5048045;28;20061;-69
2022/07/29 12:12:35;;;;;;;0.00;0.00;;;20.70;66.00;;;;;;5048543;28;20041;-69
2022/07/29 12:15:20;;;;;;;0.00;0.00;;;20.80;65.50;;;;;;5047988;28;20060;-69
2022/07/29 12:17:47;;;;;;;0.00;0.00;;;20.80;64.90;;;;;;5043878;28;20045;-70
2022/07/29 12:20:21;;;;;;;0.00;0.00;;;20.80;65.20;;;;;;5043520;28;20045;-70
2022/07/29 12:22:49;;;;;;;0.00;0.00;;;21.00;65.50;;;;;;5028498;28;20045;-70
2022/07/29 12:25:16;;;;;;;0.00;0.00;;;21.10;65.30;;;;;;5046867;28;20048;-70
2022/07/29 12:27:44;;;;;;;0.00;0.00;;;21.10;65.00;;;;;;5043917;28;20075;-70
2022/07/29 12:30:12;;;;;;;0.00;0.00;;;21.20;64.10;;;;;;5049107;28;20080;-70
2022/07/29 12:32:41;;;;;;;0.00;0.00;;;21.30;64.50;;;;;;5048527;28;20045;-70
2022/07/29 12:35:09;;;;;;;0.00;0.00;;;21.40;64.60;;;;;;5049079;28;20044;-70
2022/07/29 12:37:36;;;;;;;0.00;0.00;;;21.50;63.90;;;;;;5048925;28;20053;-70
2022/07/29 12:40:07;;;;;;;0.00;0.00;;;21.50;64.00;;;;;;5030534;28;20133;-70
2022/07/29 12:42:33;;;;;;;0.00;0.00;;;21.60;63.80;;;;;;5044498;28;20072;-69
2022/07/29 12:44:59;;;;;;;1.27;0.52;;;21.60;63.80;;;;;;5009960;28;20131;-70
2022/07/29 12:47:24;;;;;;;0.00;0.00;;;21.70;64.10;;;;;;5048726;28;20578;-69
2022/07/29 12:50:06;;;;;;;0.00;0.00;;;21.80;63.70;;;;;;5049348;28;20049;-70
2022/07/29 12:52:34;;;;;;;0.00;0.00;;;21.80;63.20;;;;;;5015101;28;20041;-70
2022/07/29 12:55:00;;;;;;;0.00;0.00;;;21.90;63.10;;;;;;5031721;28;20125;-70
2022/07/29 12:57:26;;;;;;;0.10;0.10;;;22.00;62.40;;;;;;5041504;28;20509;-70
2022/07/29 13:00:23;;;;;;;0.00;0.00;;;21.90;62.50;;;;;;5047981;28;20566;-70
2022/07/29 13:02:56;;;;;;;0.00;0.00;;;22.00;62.30;;;;;;5030228;28;20402;-71
2022/07/29 13:05:21;;;;;;;0.10;0.10;;;22.00;61.90;;;;;;5048897;28;20527;-71
2022/07/29 13:07:47;;;;;;;0.00;0.00;;;22.00;62.10;;;;;;5048713;28;20041;-71
2022/07/29 13:10:18;;;;;;;0.00;0.00;;;22.00;62.10;;;;;;5048121;28;20052;-71